sensor_id;sensor_type;location;lat;lon;timestamp;P1;durP1;ratioP1;P2;durP2;ratioP2
62679;SDS011;48746;55.578;37.902;2022-11-04T00:01:59;8.93;;;4.50;;
62679;SDS011;48746;55.578;37.902;2022-11-04T00:04:26;11.32;;;5.72;;
62679;SDS011;48746;55.578;37.902;2022-11-04T00:06:53;8.82;;;5.10;;
62679;SDS011;48746;55.578;37.902;2022-11-04T00:09:22;7.55;;;5.20;;
62679;SDS011;48746;55.578;37.902;2022-11-04T00:11:50;7.93;;;4.75;;
62679;SDS011;48746;55.578;37.902;2022-11-04T00:14:35;10.38;;;5.32;;
62679;SDS011;48746;55.578;37.902;2022-11-04T00:17:01;9.70;;;5.57;;
62679;SDS011;48746;55.578;37.902;2022-11-04T00:19:47;8.52;;;5.43;;
62679;SDS011;48746;55.578;37.902;2022-11-04T00:22:35;8.88;;;5.50;;
62679;SDS011;48746;55.578;37.902;2022-11-04T00:25:20;9.02;;;5.30;;
62679;SDS011;48746;55.578;37.902;2022-11-04T00:31:12;11.93;;;6.13;;
62679;SDS011;48746;55.578;37.902;2022-11-04T00:33:57;12.55;;;6.10;;
62679;SDS011;48746;55.578;37.902;2022-11-04T00:36:24;14.55;;;5.13;;
62679;SDS011;48746;55.578;37.902;2022-11-04T00:38:51;12.10;;;5.95;;
62679;SDS011;48746;55.578;37.902;2022-11-04T00:41:18;9.55;;;5.80;;
62679;SDS011;48746;55.578;37.902;2022-11-04T00:43:55;10.00;;;6.15;;
62679;SDS011;48746;55.578;37.902;2022-11-04T00:46:22;10.05;;;6.75;;
62679;SDS011;48746;55.578;37.902;2022-11-04T00:51:55;12.00;;;5.78;;
62679;SDS011;48746;55.578;37.902;2022-11-04T00:54:22;10.65;;;5.95;;
62679;SDS011;48746;55.578;37.902;2022-11-04T00:56:49;9.90;;;5.65;;
62679;SDS011;48746;55.578;37.902;2022-11-04T00:59:15;13.18;;;5.97;;
62679;SDS011;48746;55.578;37.902;2022-11-04T01:01:41;7.53;;;4.88;;
62679;SDS011;48746;55.578;37.902;2022-11-04T01:04:07;8.88;;;5.63;;
62679;SDS011;48746;55.578;37.902;2022-11-04T01:06:34;9.40;;;5.13;;
62679;SDS011;48746;55.578;37.902;2022-11-04T01:09:01;8.45;;;5.03;;
62679;SDS011;48746;55.578;37.902;2022-11-04T01:11:29;8.77;;;4.53;;
62679;SDS011;48746;55.578;37.902;2022-11-04T01:13:56;7.50;;;4.70;;
62679;SDS011;48746;55.578;37.902;2022-11-04T01:16:23;8.48;;;4.82;;
62679;SDS011;48746;55.578;37.902;2022-11-04T01:21:55;9.75;;;5.13;;
62679;SDS011;48746;55.578;37.902;2022-11-04T01:24:22;8.57;;;3.90;;
62679;SDS011;48746;55.578;37.902;2022-11-04T01:26:49;5.97;;;4.15;;
62679;SDS011;48746;55.578;37.902;2022-11-04T01:29:15;6.40;;;4.53;;
62679;SDS011;48746;55.578;37.902;2022-11-04T01:31:41;8.52;;;4.75;;
62679;SDS011;48746;55.578;37.902;2022-11-04T01:34:07;8.88;;;4.60;;
62679;SDS011;48746;55.578;37.902;2022-11-04T01:36:33;6.78;;;4.10;;
62679;SDS011;48746;55.578;37.902;2022-11-04T01:39:00;6.25;;;4.07;;
62679;SDS011;48746;55.578;37.902;2022-11-04T01:41:27;8.63;;;4.40;;
62679;SDS011;48746;55.578;37.902;2022-11-04T01:52:05;7.93;;;4.88;;
62679;SDS011;48746;55.578;37.902;2022-11-04T01:54:34;8.95;;;4.85;;
62679;SDS011;48746;55.578;37.902;2022-11-04T01:57:02;6.85;;;4.22;;
62679;SDS011;48746;55.578;37.902;2022-11-04T01:59:32;7.07;;;4.65;;
62679;SDS011;48746;55.578;37.902;2022-11-04T02:02:00;10.27;;;4.82;;
62679;SDS011;48746;55.578;37.902;2022-11-04T02:04:28;7.00;;;4.38;;
62679;SDS011;48746;55.578;37.902;2022-11-04T02:07:01;6.55;;;4.50;;
62679;SDS011;48746;55.578;37.902;2022-11-04T02:12:38;7.95;;;4.68;;
62679;SDS011;48746;55.578;37.902;2022-11-04T02:15:18;6.13;;;4.10;;
62679;SDS011;48746;55.578;37.902;2022-11-04T02:20:30;5.97;;;4.38;;
62679;SDS011;48746;55.578;37.902;2022-11-04T02:34:52;9.55;;;5.55;;
62679;SDS011;48746;55.578;37.902;2022-11-04T02:47:39;7.47;;;5.30;;
62679;SDS011;48746;55.578;37.902;2022-11-04T02:52:55;11.43;;;5.68;;
62679;SDS011;48746;55.578;37.902;2022-11-04T02:55:44;8.63;;;5.18;;
62679;SDS011;48746;55.578;37.902;2022-11-04T02:58:16;8.15;;;5.18;;
62679;SDS011;48746;55.578;37.902;2022-11-04T03:00:46;11.20;;;5.55;;
62679;SDS011;48746;55.578;37.902;2022-11-04T03:03:25;8.60;;;4.72;;
62679;SDS011;48746;55.578;37.902;2022-11-04T03:05:53;7.38;;;5.28;;
62679;SDS011;48746;55.578;37.902;2022-11-04T03:08:26;11.45;;;5.93;;
62679;SDS011;48746;55.578;37.902;2022-11-04T03:11:00;8.27;;;5.72;;
62679;SDS011;48746;55.578;37.902;2022-11-04T03:16:06;8.20;;;5.18;;
62679;SDS011;48746;55.578;37.902;2022-11-04T03:21:40;11.30;;;5.95;;
62679;SDS011;48746;55.578;37.902;2022-11-04T03:24:12;8.93;;;5.50;;
62679;SDS011;48746;55.578;37.902;2022-11-04T03:31:44;10.40;;;5.55;;
62679;SDS011;48746;55.578;37.902;2022-11-04T03:34:33;11.15;;;6.60;;
62679;SDS011;48746;55.578;37.902;2022-11-04T03:37:00;8.32;;;6.20;;
62679;SDS011;48746;55.578;37.902;2022-11-04T03:42:34;10.98;;;6.38;;
62679;SDS011;48746;55.578;37.902;2022-11-04T03:45:02;13.10;;;7.07;;
62679;SDS011;48746;55.578;37.902;2022-11-04T03:47:32;10.77;;;6.90;;
62679;SDS011;48746;55.578;37.902;2022-11-04T03:50:05;11.32;;;6.60;;
62679;SDS011;48746;55.578;37.902;2022-11-04T03:52:34;10.43;;;6.80;;
62679;SDS011;48746;55.578;37.902;2022-11-04T03:55:01;11.82;;;6.53;;
62679;SDS011;48746;55.578;37.902;2022-11-04T04:00:21;10.80;;;5.72;;
62679;SDS011;48746;55.578;37.902;2022-11-04T04:05:26;11.10;;;6.30;;
62679;SDS011;48746;55.578;37.902;2022-11-04T04:16:35;8.85;;;5.97;;
62679;SDS011;48746;55.578;37.902;2022-11-04T04:22:18;10.35;;;5.88;;
62679;SDS011;48746;55.578;37.902;2022-11-04T04:24:47;10.63;;;6.45;;
62679;SDS011;48746;55.578;37.902;2022-11-04T04:27:36;8.88;;;5.40;;
62679;SDS011;48746;55.578;37.902;2022-11-04T04:30:05;10.52;;;6.32;;
62679;SDS011;48746;55.578;37.902;2022-11-04T04:32:38;12.15;;;7.07;;
62679;SDS011;48746;55.578;37.902;2022-11-04T04:35:08;11.95;;;6.28;;
62679;SDS011;48746;55.578;37.902;2022-11-04T04:37:54;15.00;;;7.07;;
62679;SDS011;48746;55.578;37.902;2022-11-04T04:40:41;12.82;;;6.75;;
62679;SDS011;48746;55.578;37.902;2022-11-04T04:43:27;10.02;;;6.22;;
62679;SDS011;48746;55.578;37.902;2022-11-04T04:46:11;11.25;;;5.70;;
62679;SDS011;48746;55.578;37.902;2022-11-04T04:48:41;11.82;;;6.43;;
62679;SDS011;48746;55.578;37.902;2022-11-04T04:51:07;9.27;;;6.30;;
62679;SDS011;48746;55.578;37.902;2022-11-04T04:53:33;13.77;;;7.28;;
62679;SDS011;48746;55.578;37.902;2022-11-04T04:55:59;12.52;;;6.82;;
62679;SDS011;48746;55.578;37.902;2022-11-04T04:58:28;9.98;;;6.55;;
62679;SDS011;48746;55.578;37.902;2022-11-04T05:00:54;11.27;;;6.82;;
62679;SDS011;48746;55.578;37.902;2022-11-04T05:03:21;11.45;;;6.43;;
62679;SDS011;48746;55.578;37.902;2022-11-04T05:05:49;12.55;;;7.47;;
62679;SDS011;48746;55.578;37.902;2022-11-04T05:08:18;10.40;;;6.57;;
62679;SDS011;48746;55.578;37.902;2022-11-04T05:10:45;13.63;;;8.13;;
62679;SDS011;48746;55.578;37.902;2022-11-04T05:13:11;17.40;;;8.27;;
62679;SDS011;48746;55.578;37.902;2022-11-04T05:15:55;14.02;;;8.50;;
62679;SDS011;48746;55.578;37.902;2022-11-04T05:18:25;10.48;;;6.47;;
62679;SDS011;48746;55.578;37.902;2022-11-04T05:20:52;14.93;;;7.90;;
62679;SDS011;48746;55.578;37.902;2022-11-04T05:23:18;13.75;;;8.27;;
62679;SDS011;48746;55.578;37.902;2022-11-04T05:25:44;12.82;;;7.53;;
62679;SDS011;48746;55.578;37.902;2022-11-04T05:28:14;15.38;;;8.57;;
62679;SDS011;48746;55.578;37.902;2022-11-04T05:30:40;13.23;;;7.70;;
62679;SDS011;48746;55.578;37.902;2022-11-04T05:33:06;17.33;;;8.88;;
62679;SDS011;48746;55.578;37.902;2022-11-04T05:35:33;13.60;;;7.28;;
62679;SDS011;48746;55.578;37.902;2022-11-04T05:38:02;16.05;;;7.28;;
62679;SDS011;48746;55.578;37.902;2022-11-04T05:40:28;10.57;;;7.03;;
62679;SDS011;48746;55.578;37.902;2022-11-04T05:42:56;18.88;;;7.55;;
62679;SDS011;48746;55.578;37.902;2022-11-04T05:45:23;12.98;;;6.95;;
62679;SDS011;48746;55.578;37.902;2022-11-04T05:48:02;17.33;;;7.78;;
62679;SDS011;48746;55.578;37.902;2022-11-04T05:50:30;16.75;;;6.45;;
62679;SDS011;48746;55.578;37.902;2022-11-04T05:52:57;12.43;;;7.05;;
62679;SDS011;48746;55.578;37.902;2022-11-04T05:55:24;19.50;;;7.43;;
62679;SDS011;48746;55.578;37.902;2022-11-04T05:57:54;15.77;;;7.72;;
62679;SDS011;48746;55.578;37.902;2022-11-04T06:00:22;14.50;;;7.10;;
62679;SDS011;48746;55.578;37.902;2022-11-04T06:02:48;15.48;;;7.43;;
62679;SDS011;48746;55.578;37.902;2022-11-04T06:05:14;13.50;;;7.18;;
62679;SDS011;48746;55.578;37.902;2022-11-04T06:07:43;16.27;;;6.75;;
62679;SDS011;48746;55.578;37.902;2022-11-04T06:10:09;11.55;;;6.55;;
62679;SDS011;48746;55.578;37.902;2022-11-04T06:12:36;17.27;;;7.40;;
62679;SDS011;48746;55.578;37.902;2022-11-04T06:15:02;15.00;;;7.03;;
62679;SDS011;48746;55.578;37.902;2022-11-04T06:17:32;12.82;;;6.63;;
62679;SDS011;48746;55.578;37.902;2022-11-04T06:19:58;9.70;;;6.18;;
62679;SDS011;48746;55.578;37.902;2022-11-04T06:22:24;11.52;;;5.30;;
62679;SDS011;48746;55.578;37.902;2022-11-04T06:24:50;11.05;;;5.18;;
62679;SDS011;48746;55.578;37.902;2022-11-04T06:27:17;10.95;;;5.72;;
62679;SDS011;48746;55.578;37.902;2022-11-04T06:29:43;12.15;;;5.53;;
62679;SDS011;48746;55.578;37.902;2022-11-04T06:32:11;9.38;;;5.15;;
62679;SDS011;48746;55.578;37.902;2022-11-04T06:34:39;13.80;;;6.25;;
62679;SDS011;48746;55.578;37.902;2022-11-04T06:37:05;7.75;;;4.68;;
62679;SDS011;48746;55.578;37.902;2022-11-04T06:39:32;10.38;;;4.65;;
62679;SDS011;48746;55.578;37.902;2022-11-04T06:41:58;11.80;;;5.05;;
62679;SDS011;48746;55.578;37.902;2022-11-04T06:44:24;9.70;;;4.75;;
62679;SDS011;48746;55.578;37.902;2022-11-04T06:46:50;7.22;;;4.38;;
62679;SDS011;48746;55.578;37.902;2022-11-04T06:49:18;7.05;;;4.30;;
62679;SDS011;48746;55.578;37.902;2022-11-04T06:51:45;13.25;;;4.82;;
62679;SDS011;48746;55.578;37.902;2022-11-04T06:54:12;7.82;;;4.30;;
62679;SDS011;48746;55.578;37.902;2022-11-04T06:56:39;8.55;;;4.03;;
62679;SDS011;48746;55.578;37.902;2022-11-04T06:59:06;17.25;;;6.25;;
62679;SDS011;48746;55.578;37.902;2022-11-04T07:01:33;8.07;;;4.50;;
62679;SDS011;48746;55.578;37.902;2022-11-04T07:04:00;11.65;;;4.30;;
62679;SDS011;48746;55.578;37.902;2022-11-04T07:06:27;13.60;;;4.43;;
62679;SDS011;48746;55.578;37.902;2022-11-04T07:12:00;10.25;;;5.22;;
62679;SDS011;48746;55.578;37.902;2022-11-04T07:14:26;11.40;;;5.10;;
62679;SDS011;48746;55.578;37.902;2022-11-04T07:16:53;11.63;;;4.60;;
62679;SDS011;48746;55.578;37.902;2022-11-04T07:19:19;11.40;;;4.32;;
62679;SDS011;48746;55.578;37.902;2022-11-04T07:21:45;7.05;;;4.25;;
62679;SDS011;48746;55.578;37.902;2022-11-04T07:24:11;16.35;;;6.07;;
62679;SDS011;48746;55.578;37.902;2022-11-04T07:26:37;9.55;;;4.72;;
62679;SDS011;48746;55.578;37.902;2022-11-04T07:29:03;8.20;;;4.30;;
62679;SDS011;48746;55.578;37.902;2022-11-04T07:31:31;10.93;;;4.97;;
62679;SDS011;48746;55.578;37.902;2022-11-04T07:33:58;10.63;;;4.95;;
62679;SDS011;48746;55.578;37.902;2022-11-04T07:36:25;12.10;;;4.95;;
62679;SDS011;48746;55.578;37.902;2022-11-04T07:41:58;13.02;;;4.10;;
62679;SDS011;48746;55.578;37.902;2022-11-04T07:44:24;8.07;;;3.80;;
62679;SDS011;48746;55.578;37.902;2022-11-04T07:46:50;12.40;;;4.75;;
62679;SDS011;48746;55.578;37.902;2022-11-04T07:49:16;8.35;;;4.20;;
62679;SDS011;48746;55.578;37.902;2022-11-04T07:51:42;10.27;;;4.32;;
62679;SDS011;48746;55.578;37.902;2022-11-04T07:54:08;8.57;;;4.10;;
62679;SDS011;48746;55.578;37.902;2022-11-04T07:56:35;11.38;;;3.65;;
62679;SDS011;48746;55.578;37.902;2022-11-04T07:59:03;6.80;;;3.70;;
62679;SDS011;48746;55.578;37.902;2022-11-04T08:01:30;8.15;;;4.53;;
62679;SDS011;48746;55.578;37.902;2022-11-04T08:03:57;10.20;;;4.03;;
62679;SDS011;48746;55.578;37.902;2022-11-04T08:06:24;12.40;;;4.45;;
62679;SDS011;48746;55.578;37.902;2022-11-04T08:11:56;7.25;;;4.03;;
62679;SDS011;48746;55.578;37.902;2022-11-04T08:14:22;7.05;;;3.72;;
62679;SDS011;48746;55.578;37.902;2022-11-04T08:16:49;8.23;;;4.32;;
62679;SDS011;48746;55.578;37.902;2022-11-04T08:19:16;8.25;;;3.85;;
62679;SDS011;48746;55.578;37.902;2022-11-04T08:21:42;9.07;;;4.35;;
62679;SDS011;48746;55.578;37.902;2022-11-04T08:24:08;7.50;;;4.43;;
62679;SDS011;48746;55.578;37.902;2022-11-04T08:26:34;6.47;;;3.67;;
62679;SDS011;48746;55.578;37.902;2022-11-04T08:29:00;12.15;;;5.57;;
62679;SDS011;48746;55.578;37.902;2022-11-04T08:31:28;7.50;;;4.00;;
62679;SDS011;48746;55.578;37.902;2022-11-04T08:33:55;9.55;;;3.28;;
62679;SDS011;48746;55.578;37.902;2022-11-04T08:36:23;11.10;;;5.15;;
62679;SDS011;48746;55.578;37.902;2022-11-04T08:41:56;7.32;;;3.70;;
62679;SDS011;48746;55.578;37.902;2022-11-04T08:44:22;12.52;;;5.32;;
62679;SDS011;48746;55.578;37.902;2022-11-04T08:46:50;10.60;;;4.10;;
62679;SDS011;48746;55.578;37.902;2022-11-04T08:49:16;11.48;;;4.90;;
62679;SDS011;48746;55.578;37.902;2022-11-04T08:51:43;10.40;;;4.97;;
62679;SDS011;48746;55.578;37.902;2022-11-04T08:54:12;8.05;;;4.78;;
62679;SDS011;48746;55.578;37.902;2022-11-04T08:56:38;7.53;;;4.43;;
62679;SDS011;48746;55.578;37.902;2022-11-04T08:59:04;14.52;;;5.47;;
62679;SDS011;48746;55.578;37.902;2022-11-04T09:01:32;8.23;;;4.25;;
62679;SDS011;48746;55.578;37.902;2022-11-04T09:04:00;13.52;;;5.78;;
62679;SDS011;48746;55.578;37.902;2022-11-04T09:06:27;9.70;;;4.47;;
62679;SDS011;48746;55.578;37.902;2022-11-04T09:12:07;12.65;;;5.45;;
62679;SDS011;48746;55.578;37.902;2022-11-04T09:14:34;16.38;;;6.47;;
62679;SDS011;48746;55.578;37.902;2022-11-04T09:17:01;11.20;;;5.72;;
62679;SDS011;48746;55.578;37.902;2022-11-04T09:19:27;12.20;;;6.43;;
62679;SDS011;48746;55.578;37.902;2022-11-04T09:21:53;17.23;;;6.55;;
62679;SDS011;48746;55.578;37.902;2022-11-04T09:24:19;15.45;;;6.07;;
62679;SDS011;48746;55.578;37.902;2022-11-04T09:26:45;13.95;;;6.32;;
62679;SDS011;48746;55.578;37.902;2022-11-04T09:32:18;13.00;;;6.60;;
62679;SDS011;48746;55.578;37.902;2022-11-04T09:34:44;11.90;;;6.55;;
62679;SDS011;48746;55.578;37.902;2022-11-04T09:37:11;12.80;;;6.88;;
62679;SDS011;48746;55.578;37.902;2022-11-04T09:39:37;15.15;;;7.20;;
62679;SDS011;48746;55.578;37.902;2022-11-04T09:45:11;13.10;;;6.25;;
62679;SDS011;48746;55.578;37.902;2022-11-04T09:47:41;18.00;;;7.65;;
62679;SDS011;48746;55.578;37.902;2022-11-04T09:50:09;17.08;;;7.50;;
62679;SDS011;48746;55.578;37.902;2022-11-04T09:52:44;18.27;;;8.70;;
62679;SDS011;48746;55.578;37.902;2022-11-04T09:55:19;16.27;;;7.75;;
62679;SDS011;48746;55.578;37.902;2022-11-04T09:57:52;15.98;;;7.45;;
62679;SDS011;48746;55.578;37.902;2022-11-04T10:00:20;17.95;;;9.63;;
62679;SDS011;48746;55.578;37.902;2022-11-04T10:16:48;21.35;;;8.45;;
62679;SDS011;48746;55.578;37.902;2022-11-04T10:22:16;9.75;;;5.72;;
62679;SDS011;48746;55.578;37.902;2022-11-04T10:27:20;17.27;;;8.80;;
62679;SDS011;48746;55.578;37.902;2022-11-04T10:29:59;18.92;;;8.60;;
62679;SDS011;48746;55.578;37.902;2022-11-04T10:38:01;16.27;;;8.35;;
62679;SDS011;48746;55.578;37.902;2022-11-04T10:40:38;21.27;;;9.63;;
62679;SDS011;48746;55.578;37.902;2022-11-04T10:43:08;26.65;;;10.95;;
62679;SDS011;48746;55.578;37.902;2022-11-04T10:48:34;17.27;;;7.80;;
62679;SDS011;48746;55.578;37.902;2022-11-04T10:51:03;19.77;;;8.98;;
62679;SDS011;48746;55.578;37.902;2022-11-04T10:53:30;25.80;;;10.55;;
62679;SDS011;48746;55.578;37.902;2022-11-04T10:58:47;25.05;;;11.07;;
62679;SDS011;48746;55.578;37.902;2022-11-04T11:01:27;26.27;;;11.20;;
62679;SDS011;48746;55.578;37.902;2022-11-04T11:03:55;24.30;;;10.30;;
62679;SDS011;48746;55.578;37.902;2022-11-04T11:06:28;22.00;;;9.38;;
62679;SDS011;48746;55.578;37.902;2022-11-04T11:09:16;26.33;;;10.48;;
62679;SDS011;48746;55.578;37.902;2022-11-04T11:15:16;31.17;;;12.10;;
62679;SDS011;48746;55.578;37.902;2022-11-04T11:18:18;28.92;;;12.25;;
62679;SDS011;48746;55.578;37.902;2022-11-04T11:21:11;28.70;;;12.48;;
62679;SDS011;48746;55.578;37.902;2022-11-04T11:23:59;26.27;;;11.30;;
62679;SDS011;48746;55.578;37.902;2022-11-04T11:26:59;31.83;;;13.07;;
62679;SDS011;48746;55.578;37.902;2022-11-04T11:29:46;23.15;;;11.07;;
62679;SDS011;48746;55.578;37.902;2022-11-04T11:32:33;29.60;;;11.73;;
62679;SDS011;48746;55.578;37.902;2022-11-04T11:35:24;24.90;;;11.05;;
62679;SDS011;48746;55.578;37.902;2022-11-04T11:38:23;24.83;;;11.73;;
62679;SDS011;48746;55.578;37.902;2022-11-04T11:41:17;26.98;;;12.70;;
62679;SDS011;48746;55.578;37.902;2022-11-04T11:44:18;29.08;;;12.90;;
62679;SDS011;48746;55.578;37.902;2022-11-04T11:47:41;28.55;;;12.52;;
62679;SDS011;48746;55.578;37.902;2022-11-04T11:50:23;29.35;;;11.25;;
62679;SDS011;48746;55.578;37.902;2022-11-04T11:53:20;27.20;;;12.00;;
62679;SDS011;48746;55.578;37.902;2022-11-04T12:02:27;36.00;;;13.43;;
62679;SDS011;48746;55.578;37.902;2022-11-04T12:05:19;29.20;;;11.32;;
62679;SDS011;48746;55.578;37.902;2022-11-04T12:08:19;30.27;;;13.52;;
62679;SDS011;48746;55.578;37.902;2022-11-04T12:11:04;30.77;;;13.38;;
62679;SDS011;48746;55.578;37.902;2022-11-04T12:13:36;30.65;;;11.50;;
62679;SDS011;48746;55.578;37.902;2022-11-04T12:24:41;32.70;;;12.73;;
62679;SDS011;48746;55.578;37.902;2022-11-04T12:33:36;31.80;;;13.45;;
62679;SDS011;48746;55.578;37.902;2022-11-04T12:47:42;37.15;;;13.90;;
62679;SDS011;48746;55.578;37.902;2022-11-04T12:50:15;25.88;;;11.80;;
62679;SDS011;48746;55.578;37.902;2022-11-04T13:00:41;27.25;;;11.38;;
62679;SDS011;48746;55.578;37.902;2022-11-04T13:06:11;20.58;;;10.10;;
62679;SDS011;48746;55.578;37.902;2022-11-04T13:08:49;35.03;;;10.77;;
62679;SDS011;48746;55.578;37.902;2022-11-04T13:14:01;24.88;;;10.45;;
62679;SDS011;48746;55.578;37.902;2022-11-04T13:16:34;21.33;;;9.60;;
62679;SDS011;48746;55.578;37.902;2022-11-04T13:19:04;26.00;;;10.27;;
62679;SDS011;48746;55.578;37.902;2022-11-04T13:21:33;33.53;;;10.63;;
62679;SDS011;48746;55.578;37.902;2022-11-04T13:26:46;33.10;;;12.35;;
62679;SDS011;48746;55.578;37.902;2022-11-04T13:29:13;40.20;;;16.75;;
62679;SDS011;48746;55.578;37.902;2022-11-04T13:37:10;23.20;;;10.15;;
62679;SDS011;48746;55.578;37.902;2022-11-04T13:39:51;24.60;;;12.68;;
62679;SDS011;48746;55.578;37.902;2022-11-04T13:42:36;26.15;;;11.73;;
62679;SDS011;48746;55.578;37.902;2022-11-04T13:45:14;40.08;;;19.23;;
62679;SDS011;48746;55.578;37.902;2022-11-04T13:50:54;33.25;;;12.55;;
62679;SDS011;48746;55.578;37.902;2022-11-04T14:04:44;27.30;;;12.25;;
62679;SDS011;48746;55.578;37.902;2022-11-04T14:07:11;31.20;;;12.30;;
62679;SDS011;48746;55.578;37.902;2022-11-04T14:14:38;26.70;;;11.00;;
62679;SDS011;48746;55.578;37.902;2022-11-04T14:20:07;22.38;;;11.57;;
62679;SDS011;48746;55.578;37.902;2022-11-04T14:25:24;26.63;;;11.23;;
62679;SDS011;48746;55.578;37.902;2022-11-04T14:30:40;30.23;;;11.65;;
62679;SDS011;48746;55.578;37.902;2022-11-04T14:36:25;29.50;;;12.32;;
62679;SDS011;48746;55.578;37.902;2022-11-04T14:39:18;26.55;;;11.00;;
62679;SDS011;48746;55.578;37.902;2022-11-04T14:41:50;28.80;;;12.30;;
62679;SDS011;48746;55.578;37.902;2022-11-04T14:44:27;28.77;;;11.57;;
62679;SDS011;48746;55.578;37.902;2022-11-04T14:50:23;28.00;;;11.40;;
62679;SDS011;48746;55.578;37.902;2022-11-04T14:53:00;27.33;;;11.63;;
62679;SDS011;48746;55.578;37.902;2022-11-04T14:55:30;24.98;;;11.82;;
62679;SDS011;48746;55.578;37.902;2022-11-04T15:01:04;24.00;;;10.85;;
62679;SDS011;48746;55.578;37.902;2022-11-04T15:03:40;26.83;;;11.43;;
62679;SDS011;48746;55.578;37.902;2022-11-04T15:06:06;31.67;;;13.65;;
62679;SDS011;48746;55.578;37.902;2022-11-04T15:11:41;27.90;;;12.15;;
62679;SDS011;48746;55.578;37.902;2022-11-04T15:14:26;31.15;;;11.85;;
62679;SDS011;48746;55.578;37.902;2022-11-04T15:16:53;29.48;;;12.18;;
62679;SDS011;48746;55.578;37.902;2022-11-04T15:19:31;28.00;;;12.77;;
62679;SDS011;48746;55.578;37.902;2022-11-04T15:21:59;25.98;;;11.77;;
62679;SDS011;48746;55.578;37.902;2022-11-04T15:24:27;32.17;;;12.93;;
62679;SDS011;48746;55.578;37.902;2022-11-04T15:26:54;25.73;;;10.98;;
62679;SDS011;48746;55.578;37.902;2022-11-04T15:32:32;30.58;;;12.13;;
62679;SDS011;48746;55.578;37.902;2022-11-04T15:34:58;32.58;;;12.18;;
62679;SDS011;48746;55.578;37.902;2022-11-04T15:37:28;25.65;;;12.70;;
62679;SDS011;48746;55.578;37.902;2022-11-04T15:39:55;28.52;;;11.93;;
62679;SDS011;48746;55.578;37.902;2022-11-04T15:42:23;24.33;;;10.40;;
62679;SDS011;48746;55.578;37.902;2022-11-04T15:53:58;26.30;;;11.50;;
62679;SDS011;48746;55.578;37.902;2022-11-04T15:56:45;22.45;;;8.80;;
62679;SDS011;48746;55.578;37.902;2022-11-04T15:59:20;27.10;;;11.85;;
62679;SDS011;48746;55.578;37.902;2022-11-04T16:01:49;28.77;;;11.70;;
62679;SDS011;48746;55.578;37.902;2022-11-04T16:04:19;24.10;;;11.65;;
62679;SDS011;48746;55.578;37.902;2022-11-04T16:07:00;25.15;;;10.70;;
62679;SDS011;48746;55.578;37.902;2022-11-04T16:12:16;28.88;;;11.35;;
62679;SDS011;48746;55.578;37.902;2022-11-04T16:14:52;22.00;;;11.77;;
62679;SDS011;48746;55.578;37.902;2022-11-04T16:17:19;27.70;;;12.77;;
62679;SDS011;48746;55.578;37.902;2022-11-04T16:19:47;29.05;;;13.02;;
62679;SDS011;48746;55.578;37.902;2022-11-04T16:22:17;27.85;;;12.38;;
62679;SDS011;48746;55.578;37.902;2022-11-04T16:24:45;28.05;;;12.07;;
62679;SDS011;48746;55.578;37.902;2022-11-04T16:27:15;28.77;;;11.20;;
62679;SDS011;48746;55.578;37.902;2022-11-04T16:29:49;36.70;;;13.73;;
62679;SDS011;48746;55.578;37.902;2022-11-04T16:32:30;23.65;;;9.73;;
62679;SDS011;48746;55.578;37.902;2022-11-04T16:35:12;22.52;;;10.18;;
62679;SDS011;48746;55.578;37.902;2022-11-04T16:40:48;30.05;;;11.02;;
62679;SDS011;48746;55.578;37.902;2022-11-04T16:43:18;23.08;;;11.45;;
62679;SDS011;48746;55.578;37.902;2022-11-04T16:45:46;28.40;;;10.73;;
62679;SDS011;48746;55.578;37.902;2022-11-04T16:51:21;20.77;;;9.48;;
62679;SDS011;48746;55.578;37.902;2022-11-04T16:53:49;28.25;;;11.02;;
62679;SDS011;48746;55.578;37.902;2022-11-04T16:56:17;20.30;;;8.95;;
62679;SDS011;48746;55.578;37.902;2022-11-04T17:01:53;20.55;;;9.30;;
62679;SDS011;48746;55.578;37.902;2022-11-04T17:04:20;25.83;;;10.23;;
62679;SDS011;48746;55.578;37.902;2022-11-04T17:06:46;20.00;;;9.40;;
62679;SDS011;48746;55.578;37.902;2022-11-04T17:09:18;20.42;;;8.68;;
62679;SDS011;48746;55.578;37.902;2022-11-04T17:11:46;19.60;;;9.30;;
62679;SDS011;48746;55.578;37.902;2022-11-04T17:14:13;20.05;;;7.95;;
62679;SDS011;48746;55.578;37.902;2022-11-04T17:16:41;19.70;;;8.38;;
62679;SDS011;48746;55.578;37.902;2022-11-04T17:19:10;23.80;;;8.15;;
62679;SDS011;48746;55.578;37.902;2022-11-04T17:21:40;27.40;;;8.98;;
62679;SDS011;48746;55.578;37.902;2022-11-04T17:24:06;29.33;;;9.60;;
62679;SDS011;48746;55.578;37.902;2022-11-04T17:26:32;21.80;;;8.55;;
62679;SDS011;48746;55.578;37.902;2022-11-04T17:32:07;15.00;;;7.13;;
62679;SDS011;48746;55.578;37.902;2022-11-04T17:34:33;21.45;;;8.35;;
62679;SDS011;48746;55.578;37.902;2022-11-04T17:37:00;13.18;;;6.45;;
62679;SDS011;48746;55.578;37.902;2022-11-04T17:39:26;25.77;;;10.50;;
62679;SDS011;48746;55.578;37.902;2022-11-04T17:41:52;19.17;;;7.72;;
62679;SDS011;48746;55.578;37.902;2022-11-04T17:44:37;21.88;;;9.35;;
62679;SDS011;48746;55.578;37.902;2022-11-04T17:47:03;17.95;;;8.45;;
62679;SDS011;48746;55.578;37.902;2022-11-04T17:49:30;17.70;;;7.90;;
62679;SDS011;48746;55.578;37.902;2022-11-04T17:51:57;21.48;;;8.13;;
62679;SDS011;48746;55.578;37.902;2022-11-04T17:54:28;17.90;;;8.60;;
62679;SDS011;48746;55.578;37.902;2022-11-04T17:56:56;16.55;;;8.15;;
62679;SDS011;48746;55.578;37.902;2022-11-04T17:59:23;17.08;;;9.32;;
62679;SDS011;48746;55.578;37.902;2022-11-04T18:01:49;16.23;;;8.70;;
62679;SDS011;48746;55.578;37.902;2022-11-04T18:04:17;16.77;;;8.57;;
62679;SDS011;48746;55.578;37.902;2022-11-04T18:06:45;20.15;;;8.80;;
62679;SDS011;48746;55.578;37.902;2022-11-04T18:09:11;16.60;;;9.48;;
62679;SDS011;48746;55.578;37.902;2022-11-04T18:11:40;16.33;;;8.73;;
62679;SDS011;48746;55.578;37.902;2022-11-04T18:14:25;19.88;;;9.73;;
62679;SDS011;48746;55.578;37.902;2022-11-04T18:16:52;21.40;;;10.13;;
62679;SDS011;48746;55.578;37.902;2022-11-04T18:19:19;22.08;;;10.23;;
62679;SDS011;48746;55.578;37.902;2022-11-04T18:21:47;21.58;;;11.13;;
62679;SDS011;48746;55.578;37.902;2022-11-04T18:24:14;22.50;;;11.10;;
62679;SDS011;48746;55.578;37.902;2022-11-04T18:26:40;18.90;;;10.93;;
62679;SDS011;48746;55.578;37.902;2022-11-04T18:32:13;16.55;;;9.65;;
62679;SDS011;48746;55.578;37.902;2022-11-04T18:34:39;17.25;;;10.52;;
62679;SDS011;48746;55.578;37.902;2022-11-04T18:37:06;16.25;;;9.52;;
62679;SDS011;48746;55.578;37.902;2022-11-04T18:39:32;19.35;;;9.63;;
62679;SDS011;48746;55.578;37.902;2022-11-04T18:41:58;16.63;;;10.27;;
62679;SDS011;48746;55.578;37.902;2022-11-04T18:44:24;16.05;;;9.68;;
62679;SDS011;48746;55.578;37.902;2022-11-04T18:46:50;14.50;;;8.60;;
62679;SDS011;48746;55.578;37.902;2022-11-04T18:49:17;16.98;;;9.68;;
62679;SDS011;48746;55.578;37.902;2022-11-04T18:51:43;17.58;;;9.82;;
62679;SDS011;48746;55.578;37.902;2022-11-04T18:54:10;18.42;;;8.57;;
62679;SDS011;48746;55.578;37.902;2022-11-04T18:56:37;14.40;;;8.32;;
62679;SDS011;48746;55.578;37.902;2022-11-04T19:02:18;10.18;;;7.03;;
62679;SDS011;48746;55.578;37.902;2022-11-04T19:04:46;11.48;;;6.75;;
62679;SDS011;48746;55.578;37.902;2022-11-04T19:07:12;10.48;;;6.78;;